sensor_id;sensor_type;location;lat;lon;timestamp;P1;durP1;ratioP1;P2;durP2;ratioP2
14760;SDS011;7472;45.396;5.272;2024-02-26T00:00:24;2.90;;;0.82;;
14760;SDS011;7472;45.396;5.272;2024-02-26T00:02:52;0.82;;;0.52;;
14760;SDS011;7472;45.396;5.272;2024-02-26T00:05:20;0.77;;;0.60;;
14760;SDS011;7472;45.396;5.272;2024-02-26T00:07:47;1.77;;;0.85;;
14760;SDS011;7472;45.396;5.272;2024-02-26T00:10:16;0.68;;;0.68;;
14760;SDS011;7472;45.396;5.272;2024-02-26T00:12:43;1.20;;;0.95;;
14760;SDS011;7472;45.396;5.272;2024-02-26T00:15:11;2.38;;;1.75;;
14760;SDS011;7472;45.396;5.272;2024-02-26T00:17:39;2.67;;;0.88;;
14760;SDS011;7472;45.396;5.272;2024-02-26T00:20:06;3.05;;;2.58;;
14760;SDS011;7472;45.396;5.272;2024-02-26T00:22:34;0.75;;;0.75;;
14760;SDS011;7472;45.396;5.272;2024-02-26T00:25:01;2.63;;;0.65;;
14760;SDS011;7472;45.396;5.272;2024-02-26T00:27:31;0.70;;;0.70;;
14760;SDS011;7472;45.396;5.272;2024-02-26T00:30:00;0.80;;;0.80;;
14760;SDS011;7472;45.396;5.272;2024-02-26T00:32:27;1.33;;;0.60;;
14760;SDS011;7472;45.396;5.272;2024-02-26T00:34:54;0.82;;;0.50;;
14760;SDS011;7472;45.396;5.272;2024-02-26T00:37:21;2.28;;;0.63;;
14760;SDS011;7472;45.396;5.272;2024-02-26T00:39:48;1.83;;;0.45;;
14760;SDS011;7472;45.396;5.272;2024-02-26T00:42:15;1.48;;;0.52;;
14760;SDS011;7472;45.396;5.272;2024-02-26T00:44:44;0.60;;;0.55;;
14760;SDS011;7472;45.396;5.272;2024-02-26T00:47:11;0.52;;;0.52;;
14760;SDS011;7472;45.396;5.272;2024-02-26T00:49:38;0.90;;;0.70;;
14760;SDS011;7472;45.396;5.272;2024-02-26T00:52:05;0.90;;;0.90;;
14760;SDS011;7472;45.396;5.272;2024-02-26T00:54:32;1.13;;;0.77;;
14760;SDS011;7472;45.396;5.272;2024-02-26T00:57:00;0.70;;;0.70;;
14760;SDS011;7472;45.396;5.272;2024-02-26T00:59:27;0.80;;;0.32;;
14760;SDS011;7472;45.396;5.272;2024-02-26T01:01:56;0.77;;;0.52;;
14760;SDS011;7472;45.396;5.272;2024-02-26T01:04:23;0.90;;;0.65;;
14760;SDS011;7472;45.396;5.272;2024-02-26T01:06:51;0.57;;;0.50;;
14760;SDS011;7472;45.396;5.272;2024-02-26T01:09:18;0.95;;;0.60;;
14760;SDS011;7472;45.396;5.272;2024-02-26T01:11:45;0.63;;;0.50;;
14760;SDS011;7472;45.396;5.272;2024-02-26T01:14:12;1.63;;;0.43;;
14760;SDS011;7472;45.396;5.272;2024-02-26T01:16:39;0.60;;;0.50;;
14760;SDS011;7472;45.396;5.272;2024-02-26T01:19:08;0.70;;;0.50;;
14760;SDS011;7472;45.396;5.272;2024-02-26T01:21:35;0.32;;;0.30;;
14760;SDS011;7472;45.396;5.272;2024-02-26T01:24:02;1.60;;;0.77;;
14760;SDS011;7472;45.396;5.272;2024-02-26T01:26:30;0.60;;;0.57;;
14760;SDS011;7472;45.396;5.272;2024-02-26T01:28:57;0.60;;;0.52;;
14760;SDS011;7472;45.396;5.272;2024-02-26T01:31:24;0.60;;;0.50;;
14760;SDS011;7472;45.396;5.272;2024-02-26T01:33:51;0.30;;;0.20;;
14760;SDS011;7472;45.396;5.272;2024-02-26T01:36:19;0.20;;;0.20;;
14760;SDS011;7472;45.396;5.272;2024-02-26T01:38:47;0.20;;;0.20;;
14760;SDS011;7472;45.396;5.272;2024-02-26T01:41:14;2.00;;;0.40;;
14760;SDS011;7472;45.396;5.272;2024-02-26T01:43:41;0.63;;;0.30;;
14760;SDS011;7472;45.396;5.272;2024-02-26T01:46:09;0.40;;;0.30;;
14760;SDS011;7472;45.396;5.272;2024-02-26T01:48:40;0.10;;;0.10;;
14760;SDS011;7472;45.396;5.272;2024-02-26T01:51:07;0.77;;;0.50;;
14760;SDS011;7472;45.396;5.272;2024-02-26T01:53:37;1.17;;;0.40;;
14760;SDS011;7472;45.396;5.272;2024-02-26T01:56:05;0.60;;;0.60;;
14760;SDS011;7472;45.396;5.272;2024-02-26T01:58:32;0.50;;;0.40;;
14760;SDS011;7472;45.396;5.272;2024-02-26T02:01:01;0.50;;;0.47;;
14760;SDS011;7472;45.396;5.272;2024-02-26T02:03:28;1.30;;;0.32;;
14760;SDS011;7472;45.396;5.272;2024-02-26T02:05:57;1.15;;;0.40;;
14760;SDS011;7472;45.396;5.272;2024-02-26T02:08:24;0.40;;;0.40;;
14760;SDS011;7472;45.396;5.272;2024-02-26T02:10:53;2.22;;;1.42;;
14760;SDS011;7472;45.396;5.272;2024-02-26T02:13:20;2.65;;;1.75;;
14760;SDS011;7472;45.396;5.272;2024-02-26T02:15:47;3.25;;;1.88;;
14760;SDS011;7472;45.396;5.272;2024-02-26T02:18:14;1.20;;;0.90;;
14760;SDS011;7472;45.396;5.272;2024-02-26T02:20:43;3.60;;;0.93;;
14760;SDS011;7472;45.396;5.272;2024-02-26T02:23:10;2.50;;;0.57;;
14760;SDS011;7472;45.396;5.272;2024-02-26T02:25:39;0.30;;;0.30;;
14760;SDS011;7472;45.396;5.272;2024-02-26T02:28:06;3.72;;;2.35;;
14760;SDS011;7472;45.396;5.272;2024-02-26T02:30:33;4.35;;;2.83;;
14760;SDS011;7472;45.396;5.272;2024-02-26T02:33:01;2.22;;;1.40;;
14760;SDS011;7472;45.396;5.272;2024-02-26T02:35:28;3.15;;;2.25;;
14760;SDS011;7472;45.396;5.272;2024-02-26T02:37:57;3.78;;;2.13;;
14760;SDS011;7472;45.396;5.272;2024-02-26T02:40:24;5.93;;;2.85;;
14760;SDS011;7472;45.396;5.272;2024-02-26T02:42:51;3.35;;;1.60;;
14760;SDS011;7472;45.396;5.272;2024-02-26T02:45:18;2.95;;;1.83;;
14760;SDS011;7472;45.396;5.272;2024-02-26T02:47:45;0.80;;;0.70;;
14760;SDS011;7472;45.396;5.272;2024-02-26T02:50:13;0.40;;;0.32;;
14760;SDS011;7472;45.396;5.272;2024-02-26T02:52:40;2.38;;;0.30;;
14760;SDS011;7472;45.396;5.272;2024-02-26T02:55:08;0.30;;;0.30;;
14760;SDS011;7472;45.396;5.272;2024-02-26T02:57:36;0.52;;;0.45;;
14760;SDS011;7472;45.396;5.272;2024-02-26T03:00:06;1.40;;;0.77;;
14760;SDS011;7472;45.396;5.272;2024-02-26T03:02:34;3.85;;;1.90;;
14760;SDS011;7472;45.396;5.272;2024-02-26T03:05:02;1.67;;;1.20;;
14760;SDS011;7472;45.396;5.272;2024-02-26T03:07:29;2.60;;;2.00;;
14760;SDS011;7472;45.396;5.272;2024-02-26T03:09:56;1.20;;;1.00;;
14760;SDS011;7472;45.396;5.272;2024-02-26T03:12:25;0.90;;;0.60;;
14760;SDS011;7472;45.396;5.272;2024-02-26T03:14:53;1.70;;;1.10;;
14760;SDS011;7472;45.396;5.272;2024-02-26T03:17:19;2.33;;;1.80;;
14760;SDS011;7472;45.396;5.272;2024-02-26T03:19:46;4.57;;;2.80;;
14760;SDS011;7472;45.396;5.272;2024-02-26T03:22:18;6.60;;;4.65;;
14760;SDS011;7472;45.396;5.272;2024-02-26T03:24:45;6.20;;;4.50;;
14760;SDS011;7472;45.396;5.272;2024-02-26T03:27:12;1.75;;;1.42;;
14760;SDS011;7472;45.396;5.272;2024-02-26T03:29:41;2.95;;;1.85;;
14760;SDS011;7472;45.396;5.272;2024-02-26T03:32:08;1.95;;;1.50;;
14760;SDS011;7472;45.396;5.272;2024-02-26T03:34:36;1.48;;;0.80;;
14760;SDS011;7472;45.396;5.272;2024-02-26T03:37:04;1.23;;;0.70;;
14760;SDS011;7472;45.396;5.272;2024-02-26T03:39:32;2.92;;;0.90;;
14760;SDS011;7472;45.396;5.272;2024-02-26T03:41:59;1.33;;;1.17;;
14760;SDS011;7472;45.396;5.272;2024-02-26T03:44:27;1.00;;;0.90;;
14760;SDS011;7472;45.396;5.272;2024-02-26T03:46:55;2.42;;;1.92;;
14760;SDS011;7472;45.396;5.272;2024-02-26T03:49:23;3.95;;;2.85;;
14760;SDS011;7472;45.396;5.272;2024-02-26T03:51:50;2.08;;;1.70;;
14760;SDS011;7472;45.396;5.272;2024-02-26T03:54:17;1.10;;;0.75;;
14760;SDS011;7472;45.396;5.272;2024-02-26T03:56:44;0.90;;;0.70;;
14760;SDS011;7472;45.396;5.272;2024-02-26T03:59:12;2.40;;;1.33;;
14760;SDS011;7472;45.396;5.272;2024-02-26T04:01:44;3.97;;;1.27;;
14760;SDS011;7472;45.396;5.272;2024-02-26T04:04:13;4.00;;;2.22;;
14760;SDS011;7472;45.396;5.272;2024-02-26T04:06:43;1.52;;;1.30;;
14760;SDS011;7472;45.396;5.272;2024-02-26T04:09:11;7.15;;;4.43;;
14760;SDS011;7472;45.396;5.272;2024-02-26T04:11:38;3.67;;;2.67;;
14760;SDS011;7472;45.396;5.272;2024-02-26T04:14:06;4.38;;;2.63;;
14760;SDS011;7472;45.396;5.272;2024-02-26T04:16:33;4.53;;;2.15;;
14760;SDS011;7472;45.396;5.272;2024-02-26T04:19:01;4.35;;;1.10;;
14760;SDS011;7472;45.396;5.272;2024-02-26T04:21:29;1.80;;;0.98;;
14760;SDS011;7472;45.396;5.272;2024-02-26T04:23:56;3.75;;;2.00;;
14760;SDS011;7472;45.396;5.272;2024-02-26T04:26:26;1.33;;;0.90;;
14760;SDS011;7472;45.396;5.272;2024-02-26T04:28:54;1.13;;;0.50;;
14760;SDS011;7472;45.396;5.272;2024-02-26T04:31:21;0.52;;;0.40;;
14760;SDS011;7472;45.396;5.272;2024-02-26T04:33:48;0.55;;;0.40;;
14760;SDS011;7472;45.396;5.272;2024-02-26T04:36:15;0.30;;;0.30;;
14760;SDS011;7472;45.396;5.272;2024-02-26T04:38:44;2.28;;;0.70;;
14760;SDS011;7472;45.396;5.272;2024-02-26T04:41:11;0.77;;;0.43;;
14760;SDS011;7472;45.396;5.272;2024-02-26T04:43:38;0.75;;;0.60;;
14760;SDS011;7472;45.396;5.272;2024-02-26T04:46:06;6.75;;;3.33;;
14760;SDS011;7472;45.396;5.272;2024-02-26T04:48:34;5.63;;;2.67;;
14760;SDS011;7472;45.396;5.272;2024-02-26T04:51:01;2.45;;;1.48;;
14760;SDS011;7472;45.396;5.272;2024-02-26T04:53:29;0.65;;;0.50;;
14760;SDS011;7472;45.396;5.272;2024-02-26T04:55:58;0.98;;;0.50;;
14760;SDS011;7472;45.396;5.272;2024-02-26T04:58:25;0.25;;;0.25;;
14760;SDS011;7472;45.396;5.272;2024-02-26T05:00:52;0.50;;;0.50;;
14760;SDS011;7472;45.396;5.272;2024-02-26T05:03:19;0.95;;;0.47;;
14760;SDS011;7472;45.396;5.272;2024-02-26T05:05:46;0.38;;;0.35;;
14760;SDS011;7472;45.396;5.272;2024-02-26T05:08:13;0.43;;;0.40;;
14760;SDS011;7472;45.396;5.272;2024-02-26T05:10:41;0.63;;;0.57;;
14760;SDS011;7472;45.396;5.272;2024-02-26T05:13:09;2.28;;;2.03;;
14760;SDS011;7472;45.396;5.272;2024-02-26T05:15:37;2.83;;;2.58;;
14760;SDS011;7472;45.396;5.272;2024-02-26T05:18:04;2.63;;;1.90;;
14760;SDS011;7472;45.396;5.272;2024-02-26T05:20:32;3.08;;;2.78;;
14760;SDS011;7472;45.396;5.272;2024-02-26T05:23:01;1.35;;;1.23;;
14760;SDS011;7472;45.396;5.272;2024-02-26T05:25:28;1.40;;;1.30;;
14760;SDS011;7472;45.396;5.272;2024-02-26T05:27:56;1.27;;;1.00;;
14760;SDS011;7472;45.396;5.272;2024-02-26T05:30:24;1.23;;;1.13;;
14760;SDS011;7472;45.396;5.272;2024-02-26T05:32:52;1.13;;;0.95;;
14760;SDS011;7472;45.396;5.272;2024-02-26T05:35:19;1.52;;;0.38;;
14760;SDS011;7472;45.396;5.272;2024-02-26T05:37:46;0.50;;;0.30;;
14760;SDS011;7472;45.396;5.272;2024-02-26T05:40:15;0.30;;;0.30;;
14760;SDS011;7472;45.396;5.272;2024-02-26T05:42:43;7.53;;;0.80;;
14760;SDS011;7472;45.396;5.272;2024-02-26T05:45:10;0.80;;;0.70;;
14760;SDS011;7472;45.396;5.272;2024-02-26T05:47:39;1.73;;;1.58;;
14760;SDS011;7472;45.396;5.272;2024-02-26T05:50:08;1.95;;;1.48;;
14760;SDS011;7472;45.396;5.272;2024-02-26T05:52:36;2.20;;;1.52;;
14760;SDS011;7472;45.396;5.272;2024-02-26T05:55:04;2.45;;;2.15;;
14760;SDS011;7472;45.396;5.272;2024-02-26T05:57:32;5.50;;;2.42;;
14760;SDS011;7472;45.396;5.272;2024-02-26T05:59:59;6.55;;;2.42;;
14760;SDS011;7472;45.396;5.272;2024-02-26T06:02:29;2.50;;;1.52;;
14760;SDS011;7472;45.396;5.272;2024-02-26T06:04:59;3.58;;;1.75;;
14760;SDS011;7472;45.396;5.272;2024-02-26T06:07:26;3.97;;;2.38;;
14760;SDS011;7472;45.396;5.272;2024-02-26T06:09:54;2.35;;;1.80;;
14760;SDS011;7472;45.396;5.272;2024-02-26T06:12:21;0.88;;;0.70;;
14760;SDS011;7472;45.396;5.272;2024-02-26T06:14:51;0.60;;;0.38;;
14760;SDS011;7472;45.396;5.272;2024-02-26T06:17:18;1.02;;;0.32;;
14760;SDS011;7472;45.396;5.272;2024-02-26T06:19:45;1.63;;;1.23;;
14760;SDS011;7472;45.396;5.272;2024-02-26T06:22:14;3.75;;;1.50;;
14760;SDS011;7472;45.396;5.272;2024-02-26T06:24:41;3.10;;;1.60;;
14760;SDS011;7472;45.396;5.272;2024-02-26T06:27:08;1.67;;;1.20;;
14760;SDS011;7472;45.396;5.272;2024-02-26T06:29:35;1.65;;;1.55;;
14760;SDS011;7472;45.396;5.272;2024-02-26T06:32:02;3.08;;;1.40;;
14760;SDS011;7472;45.396;5.272;2024-02-26T06:34:30;3.13;;;1.95;;
14760;SDS011;7472;45.396;5.272;2024-02-26T06:36:57;2.65;;;2.10;;
14760;SDS011;7472;45.396;5.272;2024-02-26T06:39:28;2.22;;;1.40;;
14760;SDS011;7472;45.396;5.272;2024-02-26T06:41:56;1.80;;;1.42;;
14760;SDS011;7472;45.396;5.272;2024-02-26T06:44:25;0.82;;;0.80;;
14760;SDS011;7472;45.396;5.272;2024-02-26T06:46:57;0.88;;;0.80;;
14760;SDS011;7472;45.396;5.272;2024-02-26T06:49:25;0.80;;;0.80;;
14760;SDS011;7472;45.396;5.272;2024-02-26T06:51:52;0.90;;;0.68;;
14760;SDS011;7472;45.396;5.272;2024-02-26T06:54:20;1.08;;;0.70;;
14760;SDS011;7472;45.396;5.272;2024-02-26T06:56:48;0.90;;;0.90;;
14760;SDS011;7472;45.396;5.272;2024-02-26T06:59:15;0.57;;;0.55;;
14760;SDS011;7472;45.396;5.272;2024-02-26T07:01:45;1.67;;;1.38;;
14760;SDS011;7472;45.396;5.272;2024-02-26T07:04:12;1.70;;;1.10;;
14760;SDS011;7472;45.396;5.272;2024-02-26T07:06:40;1.88;;;1.40;;
14760;SDS011;7472;45.396;5.272;2024-02-26T07:09:08;1.98;;;1.60;;
14760;SDS011;7472;45.396;5.272;2024-02-26T07:11:37;1.20;;;0.98;;
14760;SDS011;7472;45.396;5.272;2024-02-26T07:14:08;0.73;;;0.60;;
14760;SDS011;7472;45.396;5.272;2024-02-26T07:16:36;0.80;;;0.80;;
14760;SDS011;7472;45.396;5.272;2024-02-26T07:19:03;1.90;;;1.70;;
14760;SDS011;7472;45.396;5.272;2024-02-26T07:21:30;8.10;;;4.43;;
14760;SDS011;7472;45.396;5.272;2024-02-26T07:23:58;7.75;;;5.55;;
14760;SDS011;7472;45.396;5.272;2024-02-26T07:26:26;6.32;;;5.70;;
14760;SDS011;7472;45.396;5.272;2024-02-26T07:28:55;6.88;;;4.97;;
14760;SDS011;7472;45.396;5.272;2024-02-26T07:31:24;2.15;;;1.77;;
14760;SDS011;7472;45.396;5.272;2024-02-26T07:33:51;3.55;;;2.35;;
14760;SDS011;7472;45.396;5.272;2024-02-26T07:36:18;2.30;;;2.10;;
14760;SDS011;7472;45.396;5.272;2024-02-26T07:38:46;1.83;;;1.63;;
14760;SDS011;7472;45.396;5.272;2024-02-26T07:41:13;1.38;;;1.20;;
14760;SDS011;7472;45.396;5.272;2024-02-26T07:43:40;2.08;;;1.08;;
14760;SDS011;7472;45.396;5.272;2024-02-26T07:46:07;2.00;;;1.67;;
14760;SDS011;7472;45.396;5.272;2024-02-26T07:48:38;1.58;;;1.15;;
14760;SDS011;7472;45.396;5.272;2024-02-26T07:51:06;2.63;;;1.60;;
14760;SDS011;7472;45.396;5.272;2024-02-26T07:53:33;1.80;;;1.63;;
14760;SDS011;7472;45.396;5.272;2024-02-26T07:56:01;3.47;;;2.08;;
14760;SDS011;7472;45.396;5.272;2024-02-26T07:58:30;5.03;;;2.28;;
14760;SDS011;7472;45.396;5.272;2024-02-26T08:01:00;3.80;;;2.25;;
14760;SDS011;7472;45.396;5.272;2024-02-26T08:03:30;6.65;;;2.72;;
14760;SDS011;7472;45.396;5.272;2024-02-26T08:06:00;5.60;;;3.33;;
14760;SDS011;7472;45.396;5.272;2024-02-26T08:08:28;3.42;;;2.58;;
14760;SDS011;7472;45.396;5.272;2024-02-26T08:10:55;2.55;;;1.95;;
14760;SDS011;7472;45.396;5.272;2024-02-26T08:13:22;3.28;;;2.40;;
14760;SDS011;7472;45.396;5.272;2024-02-26T08:15:50;2.78;;;1.85;;
14760;SDS011;7472;45.396;5.272;2024-02-26T08:18:17;4.78;;;1.70;;
14760;SDS011;7472;45.396;5.272;2024-02-26T08:20:45;2.95;;;1.52;;
14760;SDS011;7472;45.396;5.272;2024-02-26T08:23:15;3.25;;;2.10;;
14760;SDS011;7472;45.396;5.272;2024-02-26T08:25:42;4.15;;;2.30;;
14760;SDS011;7472;45.396;5.272;2024-02-26T08:28:10;1.90;;;1.70;;
14760;SDS011;7472;45.396;5.272;2024-02-26T08:30:38;2.17;;;1.90;;
14760;SDS011;7472;45.396;5.272;2024-02-26T08:33:05;6.95;;;2.50;;
14760;SDS011;7472;45.396;5.272;2024-02-26T08:35:33;2.60;;;2.20;;
14760;SDS011;7472;45.396;5.272;2024-02-26T08:38:00;2.85;;;2.20;;
14760;SDS011;7472;45.396;5.272;2024-02-26T08:40:29;3.58;;;2.38;;
14760;SDS011;7472;45.396;5.272;2024-02-26T08:42:56;1.88;;;1.63;;
14760;SDS011;7472;45.396;5.272;2024-02-26T08:45:24;3.33;;;1.58;;
14760;SDS011;7472;45.396;5.272;2024-02-26T08:47:52;2.13;;;1.40;;
14760;SDS011;7472;45.396;5.272;2024-02-26T08:50:19;1.73;;;0.98;;
14760;SDS011;7472;45.396;5.272;2024-02-26T08:52:47;1.38;;;1.15;;
14760;SDS011;7472;45.396;5.272;2024-02-26T08:55:16;1.20;;;1.00;;
14760;SDS011;7472;45.396;5.272;2024-02-26T08:57:44;9.30;;;1.50;;
14760;SDS011;7472;45.396;5.272;2024-02-26T09:00:12;1.67;;;0.90;;
14760;SDS011;7472;45.396;5.272;2024-02-26T09:02:40;1.17;;;0.63;;
14760;SDS011;7472;45.396;5.272;2024-02-26T09:05:09;1.10;;;0.80;;
14760;SDS011;7472;45.396;5.272;2024-02-26T09:07:36;1.45;;;0.70;;
14760;SDS011;7472;45.396;5.272;2024-02-26T09:10:04;1.15;;;0.77;;
14760;SDS011;7472;45.396;5.272;2024-02-26T09:12:33;0.50;;;0.47;;
14760;SDS011;7472;45.396;5.272;2024-02-26T09:15:02;0.50;;;0.45;;
14760;SDS011;7472;45.396;5.272;2024-02-26T09:17:29;0.57;;;0.32;;
14760;SDS011;7472;45.396;5.272;2024-02-26T09:19:57;0.75;;;0.47;;
14760;SDS011;7472;45.396;5.272;2024-02-26T09:22:25;1.67;;;0.43;;
14760;SDS011;7472;45.396;5.272;2024-02-26T09:24:52;0.85;;;0.75;;
14760;SDS011;7472;45.396;5.272;2024-02-26T09:27:19;1.85;;;0.43;;
14760;SDS011;7472;45.396;5.272;2024-02-26T09:29:48;0.47;;;0.40;;
14760;SDS011;7472;45.396;5.272;2024-02-26T09:32:17;0.52;;;0.40;;
14760;SDS011;7472;45.396;5.272;2024-02-26T09:34:44;0.40;;;0.40;;
14760;SDS011;7472;45.396;5.272;2024-02-26T09:37:12;1.23;;;0.63;;
14760;SDS011;7472;45.396;5.272;2024-02-26T09:39:39;0.30;;;0.30;;
14760;SDS011;7472;45.396;5.272;2024-02-26T09:42:06;0.45;;;0.45;;
14760;SDS011;7472;45.396;5.272;2024-02-26T09:44:36;1.27;;;0.40;;
14760;SDS011;7472;45.396;5.272;2024-02-26T09:47:07;0.73;;;0.40;;
14760;SDS011;7472;45.396;5.272;2024-02-26T09:49:37;0.73;;;0.50;;
14760;SDS011;7472;45.396;5.272;2024-02-26T09:52:04;0.40;;;0.38;;
14760;SDS011;7472;45.396;5.272;2024-02-26T09:54:32;0.90;;;0.35;;
14760;SDS011;7472;45.396;5.272;2024-02-26T09:57:00;0.25;;;0.25;;
14760;SDS011;7472;45.396;5.272;2024-02-26T09:59:29;0.70;;;0.50;;
14760;SDS011;7472;45.396;5.272;2024-02-26T10:01:56;1.45;;;0.45;;
14760;SDS011;7472;45.396;5.272;2024-02-26T10:04:25;0.45;;;0.30;;
14760;SDS011;7472;45.396;5.272;2024-02-26T10:06:53;0.50;;;0.50;;
14760;SDS011;7472;45.396;5.272;2024-02-26T10:09:21;0.52;;;0.43;;
14760;SDS011;7472;45.396;5.272;2024-02-26T10:11:49;2.53;;;0.60;;
14760;SDS011;7472;45.396;5.272;2024-02-26T10:14:16;2.47;;;0.60;;
14760;SDS011;7472;45.396;5.272;2024-02-26T10:16:44;0.32;;;0.32;;
14760;SDS011;7472;45.396;5.272;2024-02-26T10:19:13;0.47;;;0.45;;
14760;SDS011;7472;45.396;5.272;2024-02-26T10:21:54;0.93;;;0.65;;
14760;SDS011;7472;45.396;5.272;2024-02-26T10:24:21;0.50;;;0.50;;
14760;SDS011;7472;45.396;5.272;2024-02-26T10:26:49;2.00;;;0.50;;
14760;SDS011;7472;45.396;5.272;2024-02-26T10:29:16;1.95;;;0.40;;
14760;SDS011;7472;45.396;5.272;2024-02-26T10:31:44;2.88;;;0.60;;
14760;SDS011;7472;45.396;5.272;2024-02-26T10:34:12;0.95;;;0.43;;
14760;SDS011;7472;45.396;5.272;2024-02-26T10:36:39;1.35;;;0.68;;
14760;SDS011;7472;45.396;5.272;2024-02-26T10:39:08;1.10;;;0.60;;
14760;SDS011;7472;45.396;5.272;2024-02-26T10:41:36;0.40;;;0.30;;
14760;SDS011;7472;45.396;5.272;2024-02-26T10:44:03;0.55;;;0.30;;
14760;SDS011;7472;45.396;5.272;2024-02-26T10:46:31;0.50;;;0.25;;
14760;SDS011;7472;45.396;5.272;2024-02-26T10:48:58;0.43;;;0.30;;
14760;SDS011;7472;45.396;5.272;2024-02-26T10:51:26;1.15;;;0.40;;
14760;SDS011;7472;45.396;5.272;2024-02-26T10:53:55;0.40;;;0.30;;
14760;SDS011;7472;45.396;5.272;2024-02-26T10:56:25;1.50;;;0.50;;
14760;SDS011;7472;45.396;5.272;2024-02-26T10:58:54;0.40;;;0.40;;
14760;SDS011;7472;45.396;5.272;2024-02-26T11:01:22;0.32;;;0.20;;
14760;SDS011;7472;45.396;5.272;2024-02-26T11:03:51;2.63;;;0.43;;
14760;SDS011;7472;45.396;5.272;2024-02-26T11:06:18;2.35;;;0.38;;
14760;SDS011;7472;45.396;5.272;2024-02-26T11:08:47;10.82;;;1.17;;
14760;SDS011;7472;45.396;5.272;2024-02-26T11:11:15;2.05;;;0.30;;
14760;SDS011;7472;45.396;5.272;2024-02-26T11:13:45;0.68;;;0.20;;
14760;SDS011;7472;45.396;5.272;2024-02-26T11:16:15;2.05;;;0.55;;
14760;SDS011;7472;45.396;5.272;2024-02-26T11:18:43;0.55;;;0.50;;
14760;SDS011;7472;45.396;5.272;2024-02-26T11:21:15;0.75;;;0.43;;
14760;SDS011;7472;45.396;5.272;2024-02-26T11:23:43;0.60;;;0.35;;
14760;SDS011;7472;45.396;5.272;2024-02-26T11:26:11;0.47;;;0.30;;
14760;SDS011;7472;45.396;5.272;2024-02-26T11:28:39;1.08;;;0.50;;
14760;SDS011;7472;45.396;5.272;2024-02-26T11:31:08;0.75;;;0.40;;
14760;SDS011;7472;45.396;5.272;2024-02-26T11:33:35;1.40;;;0.57;;
14760;SDS011;7472;45.396;5.272;2024-02-26T11:36:05;1.63;;;0.30;;
14760;SDS011;7472;45.396;5.272;2024-02-26T11:38:34;0.85;;;0.50;;
14760;SDS011;7472;45.396;5.272;2024-02-26T11:41:03;0.50;;;0.47;;
14760;SDS011;7472;45.396;5.272;2024-02-26T11:46:25;2.75;;;0.50;;
14760;SDS011;7472;45.396;5.272;2024-02-26T11:48:54;0.90;;;0.63;;
14760;SDS011;7472;45.396;5.272;2024-02-26T11:51:24;0.77;;;0.60;;
14760;SDS011;7472;45.396;5.272;2024-02-26T11:53:52;3.00;;;0.50;;
14760;SDS011;7472;45.396;5.272;2024-02-26T11:56:20;0.50;;;0.40;;
14760;SDS011;7472;45.396;5.272;2024-02-26T11:58:48;1.20;;;0.32;;
14760;SDS011;7472;45.396;5.272;2024-02-26T12:04:03;0.80;;;0.30;;
14760;SDS011;7472;45.396;5.272;2024-02-26T12:06:31;1.20;;;0.38;;
14760;SDS011;7472;45.396;5.272;2024-02-26T12:08:58;2.00;;;0.52;;
14760;SDS011;7472;45.396;5.272;2024-02-26T12:11:27;0.60;;;0.57;;
14760;SDS011;7472;45.396;5.272;2024-02-26T12:13:54;0.85;;;0.50;;
14760;SDS011;7472;45.396;5.272;2024-02-26T12:16:34;0.40;;;0.35;;
14760;SDS011;7472;45.396;5.272;2024-02-26T12:19:03;1.98;;;0.52;;
14760;SDS011;7472;45.396;5.272;2024-02-26T12:21:31;0.40;;;0.40;;
14760;SDS011;7472;45.396;5.272;2024-02-26T12:24:06;0.85;;;0.43;;
14760;SDS011;7472;45.396;5.272;2024-02-26T12:26:33;2.05;;;0.90;;
14760;SDS011;7472;45.396;5.272;2024-02-26T12:29:01;0.98;;;0.65;;
14760;SDS011;7472;45.396;5.272;2024-02-26T12:31:28;0.40;;;0.30;;
14760;SDS011;7472;45.396;5.272;2024-02-26T12:33:56;1.27;;;0.88;;
14760;SDS011;7472;45.396;5.272;2024-02-26T12:36:25;1.52;;;1.02;;
14760;SDS011;7472;45.396;5.272;2024-02-26T12:38:53;0.63;;;0.50;;
14760;SDS011;7472;45.396;5.272;2024-02-26T12:41:21;0.95;;;0.38;;
14760;SDS011;7472;45.396;5.272;2024-02-26T12:43:48;0.40;;;0.30;;
14760;SDS011;7472;45.396;5.272;2024-02-26T12:46:15;0.28;;;0.22;;
14760;SDS011;7472;45.396;5.272;2024-02-26T12:48:43;0.75;;;0.50;;
14760;SDS011;7472;45.396;5.272;2024-02-26T12:51:11;0.88;;;0.50;;
14760;SDS011;7472;45.396;5.272;2024-02-26T12:53:40;1.05;;;0.50;;
14760;SDS011;7472;45.396;5.272;2024-02-26T12:56:08;0.77;;;0.52;;
14760;SDS011;7472;45.396;5.272;2024-02-26T12:58:37;0.45;;;0.40;;
14760;SDS011;7472;45.396;5.272;2024-02-26T13:01:06;0.50;;;0.40;;
14760;SDS011;7472;45.396;5.272;2024-02-26T13:03:34;1.05;;;0.50;;
14760;SDS011;7472;45.396;5.272;2024-02-26T13:06:02;1.70;;;0.57;;
14760;SDS011;7472;45.396;5.272;2024-02-26T13:08:31;0.43;;;0.40;;
14760;SDS011;7472;45.396;5.272;2024-02-26T13:11:00;0.95;;;0.70;;
14760;SDS011;7472;45.396;5.272;2024-02-26T13:13:27;1.02;;;0.30;;
14760;SDS011;7472;45.396;5.272;2024-02-26T13:16:01;2.45;;;0.65;;
14760;SDS011;7472;45.396;5.272;2024-02-26T13:18:28;0.50;;;0.40;;
14760;SDS011;7472;45.396;5.272;2024-02-26T13:21:06;1.30;;;0.40;;
14760;SDS011;7472;45.396;5.272;2024-02-26T13:23:34;1.45;;;0.40;;
14760;SDS011;7472;45.396;5.272;2024-02-26T13:26:03;0.47;;;0.30;;
14760;SDS011;7472;45.396;5.272;2024-02-26T13:28:31;4.68;;;0.57;;
14760;SDS011;7472;45.396;5.272;2024-02-26T13:30:58;1.70;;;0.70;;
14760;SDS011;7472;45.396;5.272;2024-02-26T13:33:28;1.77;;;0.57;;
14760;SDS011;7472;45.396;5.272;2024-02-26T13:35:56;2.53;;;0.57;;
14760;SDS011;7472;45.396;5.272;2024-02-26T13:38:24;2.90;;;0.90;;
14760;SDS011;7472;45.396;5.272;2024-02-26T13:40:51;2.25;;;0.40;;
14760;SDS011;7472;45.396;5.272;2024-02-26T13:43:20;6.32;;;0.63;;
14760;SDS011;7472;45.396;5.272;2024-02-26T13:45:48;1.30;;;0.98;;
14760;SDS011;7472;45.396;5.272;2024-02-26T13:48:15;0.80;;;0.50;;
14760;SDS011;7472;45.396;5.272;2024-02-26T13:50:43;3.70;;;0.88;;
14760;SDS011;7472;45.396;5.272;2024-02-26T13:53:11;0.73;;;0.60;;
14760;SDS011;7472;45.396;5.272;2024-02-26T13:55:39;1.17;;;0.50;;
14760;SDS011;7472;45.396;5.272;2024-02-26T13:58:08;2.67;;;0.90;;
14760;SDS011;7472;45.396;5.272;2024-02-26T14:00:40;7.13;;;0.95;;
14760;SDS011;7472;45.396;5.272;2024-02-26T14:03:07;2.33;;;1.20;;
14760;SDS011;7472;45.396;5.272;2024-02-26T14:05:35;1.00;;;0.70;;
14760;SDS011;7472;45.396;5.272;2024-02-26T14:08:02;0.80;;;0.40;;
14760;SDS011;7472;45.396;5.272;2024-02-26T14:10:29;1.30;;;0.63;;
14760;SDS011;7472;45.396;5.272;2024-02-26T14:12:57;2.22;;;0.57;;
14760;SDS011;7472;45.396;5.272;2024-02-26T14:15:25;1.75;;;0.40;;
14760;SDS011;7472;45.396;5.272;2024-02-26T14:17:55;2.70;;;0.82;;
14760;SDS011;7472;45.396;5.272;2024-02-26T14:20:22;1.00;;;0.32;;
14760;SDS011;7472;45.396;5.272;2024-02-26T14:22:50;0.73;;;0.65;;
14760;SDS011;7472;45.396;5.272;2024-02-26T14:25:18;0.50;;;0.30;;
14760;SDS011;7472;45.396;5.272;2024-02-26T14:27:46;0.68;;;0.50;;
14760;SDS011;7472;45.396;5.272;2024-02-26T14:30:13;1.98;;;0.45;;
14760;SDS011;7472;45.396;5.272;2024-02-26T14:32:41;1.67;;;0.60;;
14760;SDS011;7472;45.396;5.272;2024-02-26T14:35:10;1.25;;;0.77;;
14760;SDS011;7472;45.396;5.272;2024-02-26T14:37:37;1.48;;;0.80;;
14760;SDS011;7472;45.396;5.272;2024-02-26T14:40:05;1.75;;;1.15;;
14760;SDS011;7472;45.396;5.272;2024-02-26T14:42:35;5.55;;;0.65;;
14760;SDS011;7472;45.396;5.272;2024-02-26T14:45:02;1.98;;;0.75;;
14760;SDS011;7472;45.396;5.272;2024-02-26T14:47:33;2.97;;;1.05;;
14760;SDS011;7472;45.396;5.272;2024-02-26T14:50:01;3.63;;;1.02;;
14760;SDS011;7472;45.396;5.272;2024-02-26T14:52:30;4.18;;;1.00;;
14760;SDS011;7472;45.396;5.272;2024-02-26T14:54:57;2.38;;;0.90;;
14760;SDS011;7472;45.396;5.272;2024-02-26T14:57:24;2.72;;;1.27;;
14760;SDS011;7472;45.396;5.272;2024-02-26T14:59:52;2.55;;;0.80;;
14760;SDS011;7472;45.396;5.272;2024-02-26T15:02:19;0.93;;;0.55;;
14760;SDS011;7472;45.396;5.272;2024-02-26T15:04:46;1.67;;;0.57;;
14760;SDS011;7472;45.396;5.272;2024-02-26T15:07:14;1.23;;;0.50;;
14760;SDS011;7472;45.396;5.272;2024-02-26T15:09:42;1.92;;;0.60;;